Terminal Aerodrome Forecast
Issued by NWS

Home | Current Version | Previous Version | Text Only | Print | Product List | Glossary On
Versions: 1 2 3 4 5 6 7 8 9 10 11 12
085
FTUS46 KMTR 282340
TAFSJC
TAF
KSJC 282340Z 2900/2924 29012KT P6SM FEW012 SCT080
     FM290100 29010KT P6SM FEW012 SCT080
     FM290400 29005KT P6SM FEW012 SCT080
     FM290600 VRB03KT P6SM FEW012
     FM291300 VRB04KT 5SM BR OVC010
     FM291900 31010KT P6SM FEW012 SCT070=

USA.gov is the U.S. government's official web portal to all federal, state and local government web resources and services.